Flight Track Log - Related Links

Times and Time Zones

All times are in EDT time to prevent confusion due to time zone crossing. See the PDT4462 flight status page for this flight to view local times or setup timezone preferences in your user account.

Time Position Orientation Groundspeed Altitude Reporting Facility
EDT Latitude Longitude Course Direction KTS MPH feet Rate Location/Type
Tue 01:16:01 PM 35.1975 -80.9558 249° West 133 153 1,400  Level Atlanta Center
Tue 01:17:27 PM 35.1908 -81.0169 262° West 163 188 3,100 1,265 Climbing Atlanta Center
Tue 01:18:00 PM 35.1167 -81.1661 270° West  Level FlightAware Approximate
Tue 01:18:28 PM 35.1753 -81.0658 249° West 149 171 4,500  Level Atlanta Center
Tue 01:19:00 PM 35.0889 -81.2446 253° West  Level FlightAware Approximate
Tue 01:19:29 PM 35.1536 -81.1150 242° Southwest 149 171 5,900  Level Atlanta Center
Tue 01:20:00 PM 35.0682 -81.3270 253° West  Level FlightAware Approximate
Tue 01:20:30 PM 35.1358 -81.1586 244° Southwest 151 174 7,100  Level Atlanta Center
Tue 01:21:00 PM 35.0435 -81.4077 249° West  Level FlightAware Approximate
Tue 01:21:32 PM 35.1244 -81.2097 255° West 154 177 8,300  Level Atlanta Center
Tue 01:22:33 PM 35.1150 -81.2583 257° West 157 181 9,200 879 Climbing Atlanta Center
Tue 01:23:28 PM 35.0972 -81.3022 244° Southwest 151 174 10,000 873 Climbing Atlanta Center
Tue 01:25:00 PM 35.0457 -81.4005 249° West  Level FlightAware Approximate
Tue 01:32:00 PM 34.8704 -81.7381 132° Southeast  Level FlightAware Approximate
Tue 01:33:00 PM 34.8299 -81.6840 132° Southeast  Level FlightAware Approximate
Tue 01:34:00 PM 34.7893 -81.6300 132° Southeast  Level FlightAware Approximate
Tue 01:35:00 PM 34.7488 -81.5760 132° Southeast  Level FlightAware Approximate
Tue 01:36:00 PM 34.7046 -81.5374 195° South  Level FlightAware Approximate
Tue 01:37:00 PM 34.6467 -81.5567 195° South  Level FlightAware Approximate
Tue 01:38:00 PM 34.5887 -81.5761 195° South  Level FlightAware Approximate
Tue 01:39:00 PM 34.5308 -81.5954 195° South  Level FlightAware Approximate
Tue 01:40:00 PM 34.4729 -81.6147 195° South  Level FlightAware Approximate
Tue 01:41:00 PM 34.4149 -81.6340 195° South  Level FlightAware Approximate
Tue 01:42:00 PM 34.3569 -81.6528 193° South  Level FlightAware Approximate
Tue 01:43:00 PM 34.2984 -81.6695 193° South  Level FlightAware Approximate
Tue 01:44:00 PM 34.2400 -81.6862 193° South  Level FlightAware Approximate
Tue 01:45:00 PM 34.1815 -81.7029 193° South  Level FlightAware Approximate
Tue 01:46:00 PM 34.1231 -81.7198 194° South  Level FlightAware Approximate
Tue 01:47:00 PM 34.0648 -81.7373 194° South  Level FlightAware Approximate
Tue 01:48:00 PM 34.0064 -81.7548 194° South  Level FlightAware Approximate
Tue 01:49:00 PM 33.9520 -81.7814 220° Southwest  Level FlightAware Approximate
Tue 01:50:00 PM 33.8937 -81.7952 194° South  Level FlightAware Approximate
Tue 01:51:00 PM 33.8354 -81.8127 194° South  Level FlightAware Approximate
Tue 01:52:00 PM 33.7771 -81.8302 194° South  Level FlightAware Approximate
Tue 01:53:00 PM 33.7188 -81.8477 194° South  Level FlightAware Approximate
Tue 01:54:00 PM 33.6605 -81.8652 194° South  Level FlightAware Approximate
Tue 01:55:00 PM 33.6022 -81.8827 194° South  Level FlightAware Approximate
Tue 01:56:00 PM 33.5430 -81.8947 189° South  Level FlightAware Approximate
Tue 01:57:00 PM 33.4975 -81.9205 189° South  Level FlightAware Approximate

Login

Don't have an account? Register now (free) for customized features, flight alerts, and more!